EZY79PL EGPH-EGSS
Flight info
| Callsign | EZY79PL |
|---|---|
| Flight time | 1h 2m |
| Altitude | 33000 |
| Route | GOSAM P600 FENIK L612 NAVSO DCT AKOMU DCT VAMEB UL612 LISTO |
| Aircraft | A320/M-SDE3FGHIRWY/LB1 |
Departure
| Time | 2026-04-22 09:59 |
|---|---|
| Airport | Edinburgh Airport (EGPH) |
Arrival
| Time | 2026-04-22 11:02 |
|---|---|
| Airport | London Stansted Airport (EGSS) |
| Time | Latitude | Longitude | Altitude | Speed | Heading |
|---|---|---|---|---|---|
| 2026-04-22 09:06 | 55.94612 | -3.36627 | 117 ft | 0 kts | 89° |
| 2026-04-22 09:47 | 55.94612 | -3.36658 | 113 ft | 4 kts | 85° |
| 2026-04-22 09:47 | 55.94607 | -3.36704 | 112 ft | 4 kts | 64° |
| 2026-04-22 09:47 | 55.94593 | -3.36733 | 112 ft | 3 kts | 3° |
| 2026-04-22 09:48 | 55.94590 | -3.36733 | 113 ft | 0 kts | 359° |
| 2026-04-22 09:50 | 55.94591 | -3.36733 | 113 ft | 1 kts | 359° |
| 2026-04-22 09:50 | 55.94614 | -3.36734 | 114 ft | 6 kts | 359° |
| 2026-04-22 09:50 | 55.94672 | -3.36735 | 116 ft | 9 kts | 359° |
| 2026-04-22 09:51 | 55.94740 | -3.36741 | 116 ft | 10 kts | 349° |
| 2026-04-22 09:51 | 55.94805 | -3.36777 | 116 ft | 10 kts | 355° |
| 2026-04-22 09:51 | 55.94873 | -3.36783 | 116 ft | 10 kts | 348° |
| 2026-04-22 09:51 | 55.94926 | -3.36857 | 114 ft | 9 kts | 288° |
| 2026-04-22 09:52 | 55.94905 | -3.36959 | 114 ft | 9 kts | 238° |
| 2026-04-22 09:52 | 55.94871 | -3.37060 | 113 ft | 11 kts | 240° |
| 2026-04-22 09:52 | 55.94831 | -3.37176 | 113 ft | 11 kts | 238° |
| 2026-04-22 09:52 | 55.94793 | -3.37284 | 116 ft | 10 kts | 238° |
| 2026-04-22 09:53 | 55.94759 | -3.37385 | 113 ft | 10 kts | 239° |
| 2026-04-22 09:53 | 55.94718 | -3.37508 | 115 ft | 14 kts | 239° |
| 2026-04-22 09:53 | 55.94665 | -3.37663 | 114 ft | 14 kts | 238° |
| 2026-04-22 09:53 | 55.94615 | -3.37810 | 114 ft | 13 kts | 239° |
| 2026-04-22 09:54 | 55.94571 | -3.37945 | 114 ft | 12 kts | 238° |
| 2026-04-22 09:54 | 55.94530 | -3.38065 | 114 ft | 11 kts | 239° |
| 2026-04-22 09:54 | 55.94494 | -3.38173 | 114 ft | 10 kts | 238° |
| 2026-04-22 09:54 | 55.94456 | -3.38282 | 113 ft | 12 kts | 239° |
| 2026-04-22 09:55 | 55.94410 | -3.38421 | 114 ft | 13 kts | 240° |
| 2026-04-22 09:55 | 55.94365 | -3.38553 | 115 ft | 12 kts | 238° |
| 2026-04-22 09:55 | 55.94324 | -3.38672 | 114 ft | 11 kts | 238° |
| 2026-04-22 09:55 | 55.94288 | -3.38779 | 115 ft | 9 kts | 239° |
| 2026-04-22 09:56 | 55.94294 | -3.38873 | 113 ft | 8 kts | 315° |
| 2026-04-22 09:56 | 55.94315 | -3.38896 | 114 ft | 0 kts | 328° |
| 2026-04-22 09:57 | 55.94321 | -3.38903 | 113 ft | 4 kts | 329° |
| 2026-04-22 09:57 | 55.94360 | -3.38944 | 113 ft | 8 kts | 329° |
| 2026-04-22 09:58 | 55.94409 | -3.38980 | 114 ft | 7 kts | 11° |
| 2026-04-22 09:58 | 55.94424 | -3.38948 | 112 ft | 0 kts | 58° |
| 2026-04-22 09:58 | 55.94425 | -3.38945 | 113 ft | 5 kts | 59° |
| 2026-04-22 09:59 | 55.94590 | -3.38457 | 111 ft | 82 kts | 58° |
| 2026-04-22 09:59 | 55.94986 | -3.37292 | 112 ft | 137 kts | 59° |
| 2026-04-22 09:59 | 55.95511 | -3.35742 | 620 ft | 147 kts | 59° |
| 2026-04-22 09:59 | 55.96076 | -3.34213 | 1432 ft | 149 kts | 50° |
| 2026-04-22 10:00 | 55.96885 | -3.32855 | 1890 ft | 168 kts | 44° |
| 2026-04-22 10:00 | 55.97800 | -3.31376 | 2229 ft | 193 kts | 44° |
| 2026-04-22 10:00 | 55.98872 | -3.29652 | 2703 ft | 217 kts | 44° |
| 2026-04-22 10:00 | 56.00188 | -3.28157 | 3238 ft | 241 kts | 17° |
| 2026-04-22 10:01 | 56.01908 | -3.28337 | 4006 ft | 262 kts | 340° |
| 2026-04-22 10:01 | 56.03352 | -3.30409 | 4792 ft | 277 kts | 304° |
| 2026-04-22 10:01 | 56.03928 | -3.33692 | 5670 ft | 282 kts | 268° |
| 2026-04-22 10:01 | 56.03622 | -3.37142 | 6569 ft | 282 kts | 250° |
| 2026-04-22 10:02 | 56.02960 | -3.40466 | 7466 ft | 285 kts | 245° |
| 2026-04-22 10:02 | 56.02224 | -3.43761 | 8356 ft | 287 kts | 245° |
| 2026-04-22 10:02 | 56.01516 | -3.47137 | 9201 ft | 293 kts | 248° |
| 2026-04-22 10:02 | 56.00870 | -3.50615 | 10056 ft | 298 kts | 249° |
| 2026-04-22 10:03 | 56.00272 | -3.54209 | 10455 ft | 303 kts | 251° |
| 2026-04-22 10:03 | 55.99724 | -3.57837 | 10546 ft | 302 kts | 252° |
| 2026-04-22 10:03 | 55.98987 | -3.61351 | 10612 ft | 310 kts | 235° |
| 2026-04-22 10:03 | 55.97583 | -3.64381 | 10997 ft | 324 kts | 223° |
| 2026-04-22 10:04 | 55.96023 | -3.67333 | 11718 ft | 329 kts | 223° |
| 2026-04-22 10:04 | 55.94448 | -3.70307 | 12542 ft | 331 kts | 223° |
| 2026-04-22 10:04 | 55.92862 | -3.73288 | 13383 ft | 333 kts | 223° |
| 2026-04-22 10:04 | 55.91167 | -3.76088 | 14166 ft | 331 kts | 211° |
| 2026-04-22 10:05 | 55.89101 | -3.77792 | 14879 ft | 327 kts | 192° |
| 2026-04-22 10:05 | 55.86849 | -3.78134 | 15543 ft | 326 kts | 173° |
| 2026-04-22 10:05 | 55.84658 | -3.77082 | 16177 ft | 328 kts | 156° |
| 2026-04-22 10:05 | 55.82551 | -3.75449 | 16862 ft | 331 kts | 156° |
| 2026-04-22 10:06 | 55.80428 | -3.73800 | 17449 ft | 336 kts | 156° |
| 2026-04-22 10:06 | 55.78205 | -3.72434 | 18082 ft | 339 kts | 163° |
| 2026-04-22 10:06 | 55.75919 | -3.71267 | 18724 ft | 343 kts | 163° |
| 2026-04-22 10:06 | 55.73640 | -3.70107 | 19262 ft | 347 kts | 163° |
| 2026-04-22 10:07 | 55.71313 | -3.68927 | 19866 ft | 348 kts | 163° |
| 2026-04-22 10:07 | 55.68963 | -3.67738 | 20366 ft | 353 kts | 163° |
| 2026-04-22 10:07 | 55.66596 | -3.66540 | 20943 ft | 355 kts | 163° |
| 2026-04-22 10:07 | 55.64220 | -3.65339 | 21565 ft | 355 kts | 164° |
| 2026-04-22 10:08 | 55.61836 | -3.64134 | 22052 ft | 360 kts | 164° |
| 2026-04-22 10:08 | 55.59408 | -3.62908 | 22483 ft | 365 kts | 164° |
| 2026-04-22 10:08 | 55.56957 | -3.61673 | 23034 ft | 367 kts | 164° |
| 2026-04-22 10:08 | 55.54485 | -3.60425 | 23438 ft | 373 kts | 164° |
| 2026-04-22 10:09 | 55.51975 | -3.59157 | 23885 ft | 377 kts | 165° |
| 2026-04-22 10:09 | 55.49445 | -3.57886 | 24349 ft | 379 kts | 165° |
| 2026-04-22 10:09 | 55.46894 | -3.56608 | 24743 ft | 382 kts | 165° |
| 2026-04-22 10:09 | 55.44305 | -3.55310 | 24968 ft | 391 kts | 166° |
| 2026-04-22 10:10 | 55.41664 | -3.53986 | 25267 ft | 397 kts | 167° |
| 2026-04-22 10:10 | 55.38990 | -3.52648 | 25596 ft | 402 kts | 166° |
| 2026-04-22 10:10 | 55.36288 | -3.51296 | 25932 ft | 405 kts | 167° |
| 2026-04-22 10:10 | 55.33563 | -3.49934 | 26286 ft | 409 kts | 167° |
| 2026-04-22 10:11 | 55.30806 | -3.48564 | 26639 ft | 413 kts | 167° |
| 2026-04-22 10:11 | 55.28035 | -3.47194 | 26981 ft | 416 kts | 167° |
| 2026-04-22 10:11 | 55.25233 | -3.45801 | 27321 ft | 420 kts | 167° |
| 2026-04-22 10:11 | 55.22416 | -3.44393 | 27656 ft | 423 kts | 167° |
| 2026-04-22 10:12 | 55.19567 | -3.42967 | 27948 ft | 427 kts | 168° |
| 2026-04-22 10:12 | 55.16695 | -3.41533 | 28246 ft | 431 kts | 168° |
| 2026-04-22 10:12 | 55.13797 | -3.40088 | 28584 ft | 435 kts | 168° |
| 2026-04-22 10:12 | 55.10874 | -3.38633 | 28913 ft | 438 kts | 168° |
| 2026-04-22 10:13 | 55.07934 | -3.37171 | 29249 ft | 441 kts | 168° |
| 2026-04-22 10:13 | 55.04971 | -3.35705 | 29580 ft | 444 kts | 169° |
| 2026-04-22 10:13 | 55.01993 | -3.34234 | 29921 ft | 447 kts | 169° |
| 2026-04-22 10:13 | 54.98986 | -3.32747 | 30214 ft | 450 kts | 169° |
| 2026-04-22 10:14 | 54.95956 | -3.31252 | 30502 ft | 453 kts | 169° |
| 2026-04-22 10:14 | 54.92954 | -3.29772 | 30785 ft | 455 kts | 168° |
| 2026-04-22 10:14 | 54.89896 | -3.28268 | 31067 ft | 457 kts | 168° |
| 2026-04-22 10:14 | 54.86830 | -3.26757 | 31366 ft | 459 kts | 168° |
| 2026-04-22 10:15 | 54.83756 | -3.25246 | 31634 ft | 460 kts | 168° |
| 2026-04-22 10:15 | 54.80664 | -3.23728 | 31907 ft | 462 kts | 168° |
| 2026-04-22 10:15 | 54.77578 | -3.22218 | 32302 ft | 460 kts | 168° |
| 2026-04-22 10:15 | 54.74497 | -3.20713 | 32709 ft | 459 kts | 168° |
| 2026-04-22 10:16 | 54.71427 | -3.19216 | 33122 ft | 457 kts | 168° |
| 2026-04-22 10:16 | 54.68369 | -3.17729 | 33406 ft | 457 kts | 168° |
| 2026-04-22 10:16 | 54.62353 | -3.14797 | 33473 ft | 440 kts | 168° |
| 2026-04-22 10:17 | 54.56499 | -3.11956 | 33467 ft | 436 kts | 168° |
| 2026-04-22 10:17 | 54.51608 | -3.09610 | 33466 ft | 435 kts | 168° |
| 2026-04-22 10:18 | 54.45816 | -3.06842 | 33444 ft | 435 kts | 168° |
| 2026-04-22 10:18 | 54.39977 | -3.04047 | 33449 ft | 436 kts | 168° |
| 2026-04-22 10:19 | 54.34132 | -3.01246 | 33451 ft | 436 kts | 168° |
| 2026-04-22 10:19 | 54.28292 | -2.98451 | 33441 ft | 436 kts | 168° |
| 2026-04-22 10:20 | 54.22456 | -2.95672 | 33446 ft | 435 kts | 168° |
| 2026-04-22 10:20 | 54.16633 | -2.92766 | 33429 ft | 438 kts | 162° |
| 2026-04-22 10:21 | 54.11009 | -2.88684 | 33433 ft | 439 kts | 160° |
| 2026-04-22 10:21 | 54.05387 | -2.84593 | 33436 ft | 439 kts | 160° |
| 2026-04-22 10:22 | 53.99765 | -2.80520 | 33418 ft | 439 kts | 160° |
| 2026-04-22 10:22 | 53.94144 | -2.76455 | 33414 ft | 439 kts | 160° |
| 2026-04-22 10:23 | 53.88527 | -2.72393 | 33409 ft | 439 kts | 160° |
| 2026-04-22 10:23 | 53.82927 | -2.68359 | 33411 ft | 438 kts | 160° |
| 2026-04-22 10:24 | 53.77313 | -2.64333 | 33411 ft | 438 kts | 160° |
| 2026-04-22 10:24 | 53.71701 | -2.60315 | 33421 ft | 438 kts | 160° |
| 2026-04-22 10:25 | 53.66086 | -2.56310 | 33399 ft | 439 kts | 160° |
| 2026-04-22 10:25 | 53.60447 | -2.52289 | 33401 ft | 440 kts | 160° |
| 2026-04-22 10:26 | 53.54804 | -2.48282 | 33404 ft | 441 kts | 160° |
| 2026-04-22 10:26 | 53.49136 | -2.44282 | 33385 ft | 443 kts | 160° |
| 2026-04-22 10:27 | 53.43436 | -2.40263 | 33410 ft | 444 kts | 160° |
| 2026-04-22 10:27 | 53.37730 | -2.36254 | 33407 ft | 445 kts | 160° |
| 2026-04-22 10:28 | 53.32009 | -2.32223 | 33418 ft | 446 kts | 160° |
| 2026-04-22 10:28 | 53.26289 | -2.28224 | 33414 ft | 446 kts | 160° |
| 2026-04-22 10:29 | 53.20559 | -2.24238 | 33402 ft | 446 kts | 160° |
| 2026-04-22 10:29 | 53.14858 | -2.20117 | 33404 ft | 448 kts | 154° |
| 2026-04-22 10:30 | 53.09696 | -2.14246 | 33394 ft | 450 kts | 145° |
| 2026-04-22 10:30 | 53.04644 | -2.08072 | 33391 ft | 450 kts | 146° |
| 2026-04-22 10:31 | 52.99614 | -2.01969 | 33394 ft | 450 kts | 146° |
| 2026-04-22 10:31 | 52.94550 | -1.95848 | 33381 ft | 451 kts | 145° |
| 2026-04-22 10:32 | 52.92007 | -1.92777 | 33213 ft | 455 kts | 146° |
| 2026-04-22 10:32 | 52.89425 | -1.89669 | 32369 ft | 460 kts | 146° |
| 2026-04-22 10:32 | 52.86852 | -1.86577 | 31884 ft | 455 kts | 146° |
| 2026-04-22 10:32 | 52.84298 | -1.83506 | 31334 ft | 452 kts | 146° |
| 2026-04-22 10:33 | 52.81759 | -1.80459 | 30824 ft | 449 kts | 146° |
| 2026-04-22 10:33 | 52.79228 | -1.77426 | 30271 ft | 446 kts | 146° |
| 2026-04-22 10:33 | 52.76728 | -1.74435 | 29784 ft | 441 kts | 146° |
| 2026-04-22 10:33 | 52.74217 | -1.71600 | 29293 ft | 434 kts | 152° |
| 2026-04-22 10:34 | 52.71572 | -1.69292 | 28744 ft | 427 kts | 154° |
| 2026-04-22 10:34 | 52.68950 | -1.67034 | 28276 ft | 422 kts | 154° |
| 2026-04-22 10:34 | 52.66367 | -1.64805 | 27792 ft | 417 kts | 154° |
| 2026-04-22 10:34 | 52.63806 | -1.62598 | 27324 ft | 413 kts | 154° |
| 2026-04-22 10:35 | 52.61272 | -1.60419 | 26849 ft | 410 kts | 154° |
| 2026-04-22 10:35 | 52.58754 | -1.58262 | 26372 ft | 406 kts | 154° |
| 2026-04-22 10:35 | 52.56253 | -1.56126 | 25879 ft | 404 kts | 154° |
| 2026-04-22 10:35 | 52.53765 | -1.54004 | 25372 ft | 402 kts | 154° |
| 2026-04-22 10:36 | 52.51291 | -1.51895 | 24866 ft | 400 kts | 154° |
| 2026-04-22 10:36 | 52.48824 | -1.49793 | 24457 ft | 399 kts | 154° |
| 2026-04-22 10:36 | 52.46365 | -1.47697 | 23932 ft | 398 kts | 153° |
| 2026-04-22 10:36 | 52.43906 | -1.45602 | 23415 ft | 395 kts | 153° |
| 2026-04-22 10:37 | 52.41505 | -1.43563 | 23253 ft | 383 kts | 153° |
| 2026-04-22 10:37 | 52.36873 | -1.39639 | 22696 ft | 369 kts | 153° |
| 2026-04-22 10:37 | 52.34603 | -1.37720 | 22303 ft | 366 kts | 153° |
| 2026-04-22 10:38 | 52.32345 | -1.35814 | 21876 ft | 364 kts | 153° |
| 2026-04-22 10:38 | 52.30100 | -1.33920 | 21447 ft | 362 kts | 153° |
| 2026-04-22 10:38 | 52.27886 | -1.31991 | 21120 ft | 357 kts | 151° |
| 2026-04-22 10:38 | 52.25753 | -1.30012 | 20836 ft | 350 kts | 150° |
| 2026-04-22 10:39 | 52.23676 | -1.28024 | 20256 ft | 343 kts | 149° |
| 2026-04-22 10:39 | 52.21628 | -1.26047 | 19643 ft | 338 kts | 149° |
| 2026-04-22 10:39 | 52.19648 | -1.24141 | 19081 ft | 332 kts | 149° |
| 2026-04-22 10:39 | 52.17675 | -1.22257 | 18495 ft | 326 kts | 149° |
| 2026-04-22 10:40 | 52.15726 | -1.20411 | 17874 ft | 321 kts | 149° |
| 2026-04-22 10:40 | 52.13813 | -1.18610 | 17242 ft | 316 kts | 149° |
| 2026-04-22 10:40 | 52.11925 | -1.16837 | 16628 ft | 311 kts | 148° |
| 2026-04-22 10:40 | 52.10060 | -1.15090 | 16052 ft | 307 kts | 148° |
| 2026-04-22 10:41 | 52.08211 | -1.13361 | 15637 ft | 305 kts | 148° |
| 2026-04-22 10:41 | 52.06379 | -1.11653 | 15427 ft | 303 kts | 148° |
| 2026-04-22 10:41 | 52.04556 | -1.09954 | 15379 ft | 302 kts | 148° |
| 2026-04-22 10:41 | 52.02745 | -1.08220 | 15334 ft | 302 kts | 143° |
| 2026-04-22 10:42 | 52.01214 | -1.05925 | 15333 ft | 299 kts | 126° |
| 2026-04-22 10:42 | 52.00172 | -1.03055 | 15285 ft | 294 kts | 111° |
| 2026-04-22 10:42 | 51.99676 | -0.99864 | 14969 ft | 291 kts | 96° |
| 2026-04-22 10:42 | 51.99647 | -0.96572 | 14605 ft | 291 kts | 90° |
| 2026-04-22 10:43 | 51.99658 | -0.93294 | 14368 ft | 287 kts | 91° |
| 2026-04-22 10:43 | 51.99662 | -0.90104 | 14247 ft | 278 kts | 91° |
| 2026-04-22 10:43 | 51.99665 | -0.87013 | 14124 ft | 270 kts | 91° |
| 2026-04-22 10:43 | 51.99665 | -0.84003 | 13990 ft | 263 kts | 91° |
| 2026-04-22 10:44 | 51.99665 | -0.81085 | 13856 ft | 255 kts | 91° |
| 2026-04-22 10:44 | 51.99665 | -0.78244 | 13700 ft | 249 kts | 91° |
| 2026-04-22 10:44 | 51.99663 | -0.75448 | 13440 ft | 247 kts | 91° |
| 2026-04-22 10:44 | 51.99658 | -0.72662 | 13152 ft | 246 kts | 91° |
| 2026-04-22 10:45 | 51.99654 | -0.69901 | 12885 ft | 244 kts | 91° |
| 2026-04-22 10:45 | 51.99649 | -0.67155 | 12605 ft | 242 kts | 91° |
| 2026-04-22 10:45 | 51.99642 | -0.64423 | 12318 ft | 241 kts | 91° |
| 2026-04-22 10:45 | 51.99631 | -0.61706 | 12035 ft | 240 kts | 92° |
| 2026-04-22 10:46 | 51.99622 | -0.59007 | 11765 ft | 238 kts | 91° |
| 2026-04-22 10:46 | 51.99616 | -0.56328 | 11498 ft | 237 kts | 91° |
| 2026-04-22 10:46 | 51.99610 | -0.53651 | 11217 ft | 236 kts | 91° |
| 2026-04-22 10:46 | 51.99601 | -0.50997 | 10929 ft | 235 kts | 92° |
| 2026-04-22 10:47 | 51.99585 | -0.48357 | 10658 ft | 233 kts | 91° |
| 2026-04-22 10:47 | 51.99645 | -0.45738 | 10378 ft | 232 kts | 88° |
| 2026-04-22 10:47 | 51.99754 | -0.43169 | 10087 ft | 231 kts | 87° |
| 2026-04-22 10:47 | 51.99876 | -0.40581 | 9769 ft | 229 kts | 87° |
| 2026-04-22 10:48 | 51.99998 | -0.38011 | 9455 ft | 228 kts | 87° |
| 2026-04-22 10:48 | 52.00121 | -0.35422 | 9127 ft | 226 kts | 88° |
| 2026-04-22 10:48 | 52.00236 | -0.32916 | 8816 ft | 225 kts | 88° |
| 2026-04-22 10:48 | 52.00348 | -0.30397 | 8500 ft | 223 kts | 88° |
| 2026-04-22 10:49 | 52.00458 | -0.27897 | 8175 ft | 222 kts | 88° |
| 2026-04-22 10:49 | 52.00565 | -0.25407 | 7850 ft | 220 kts | 88° |
| 2026-04-22 10:49 | 52.00668 | -0.22940 | 7533 ft | 218 kts | 88° |
| 2026-04-22 10:49 | 52.00770 | -0.20488 | 7203 ft | 217 kts | 88° |
| 2026-04-22 10:50 | 52.00871 | -0.18050 | 6886 ft | 216 kts | 88° |
| 2026-04-22 10:50 | 52.00970 | -0.15625 | 6559 ft | 214 kts | 88° |
| 2026-04-22 10:50 | 52.01066 | -0.13224 | 6237 ft | 212 kts | 88° |
| 2026-04-22 10:50 | 52.01163 | -0.10844 | 6013 ft | 210 kts | 88° |
| 2026-04-22 10:51 | 52.01259 | -0.08474 | 5990 ft | 211 kts | 88° |
| 2026-04-22 10:51 | 52.01355 | -0.06089 | 5992 ft | 212 kts | 88° |
| 2026-04-22 10:51 | 52.01275 | -0.03720 | 5862 ft | 212 kts | 109° |
| 2026-04-22 10:51 | 52.00459 | -0.01783 | 5595 ft | 212 kts | 138° |
| 2026-04-22 10:52 | 51.99246 | -0.00409 | 5357 ft | 213 kts | 141° |
| 2026-04-22 10:52 | 51.98027 | 0.00954 | 5122 ft | 213 kts | 141° |
| 2026-04-22 10:52 | 51.96813 | 0.02319 | 4875 ft | 212 kts | 141° |
| 2026-04-22 10:52 | 51.95544 | 0.03539 | 4635 ft | 215 kts | 154° |
| 2026-04-22 10:53 | 51.94052 | 0.03981 | 4387 ft | 223 kts | 175° |
| 2026-04-22 10:53 | 51.92505 | 0.03530 | 4119 ft | 229 kts | 188° |
| 2026-04-22 10:53 | 51.90963 | 0.02882 | 3853 ft | 228 kts | 188° |
| 2026-04-22 10:53 | 51.89424 | 0.02243 | 3584 ft | 228 kts | 188° |
| 2026-04-22 10:54 | 51.87887 | 0.01610 | 3312 ft | 228 kts | 188° |
| 2026-04-22 10:54 | 51.86356 | 0.00977 | 3071 ft | 226 kts | 189° |
| 2026-04-22 10:54 | 51.84817 | 0.00357 | 3001 ft | 224 kts | 188° |
| 2026-04-22 10:54 | 51.83346 | -0.00211 | 3043 ft | 211 kts | 187° |
| 2026-04-22 10:55 | 51.81936 | -0.00746 | 2924 ft | 205 kts | 187° |
| 2026-04-22 10:55 | 51.80564 | -0.01262 | 2812 ft | 200 kts | 186° |
| 2026-04-22 10:55 | 51.79229 | -0.01763 | 2690 ft | 194 kts | 185° |
| 2026-04-22 10:55 | 51.77919 | -0.02129 | 2602 ft | 187 kts | 171° |
| 2026-04-22 10:56 | 51.76702 | -0.01686 | 2562 ft | 175 kts | 147° |
| 2026-04-22 10:56 | 51.75778 | -0.00506 | 2552 ft | 167 kts | 121° |
| 2026-04-22 10:56 | 51.75303 | 0.01142 | 2492 ft | 161 kts | 98° |
| 2026-04-22 10:56 | 51.75323 | 0.02926 | 2497 ft | 160 kts | 76° |
| 2026-04-22 10:57 | 51.75816 | 0.04496 | 2506 ft | 155 kts | 54° |
| 2026-04-22 10:57 | 51.76586 | 0.05688 | 2508 ft | 150 kts | 48° |
| 2026-04-22 10:57 | 51.77348 | 0.06820 | 2503 ft | 148 kts | 48° |
| 2026-04-22 10:57 | 51.77849 | 0.07565 | 2503 ft | 147 kts | 48° |
| 2026-04-22 10:58 | 51.78602 | 0.08685 | 2503 ft | 147 kts | 48° |
| 2026-04-22 10:58 | 51.79357 | 0.09810 | 2504 ft | 146 kts | 49° |
| 2026-04-22 10:58 | 51.80080 | 0.10886 | 2418 ft | 140 kts | 49° |
| 2026-04-22 10:58 | 51.81017 | 0.12284 | 2191 ft | 137 kts | 49° |
| 2026-04-22 10:59 | 51.81490 | 0.12990 | 2080 ft | 136 kts | 48° |
| 2026-04-22 10:59 | 51.82181 | 0.14024 | 1899 ft | 135 kts | 48° |
| 2026-04-22 10:59 | 51.82875 | 0.15045 | 1717 ft | 134 kts | 47° |
| 2026-04-22 10:59 | 51.83572 | 0.16063 | 1530 ft | 135 kts | 49° |
| 2026-04-22 11:00 | 51.84250 | 0.17076 | 1348 ft | 134 kts | 50° |
| 2026-04-22 11:00 | 51.84927 | 0.18125 | 1165 ft | 133 kts | 49° |
| 2026-04-22 11:00 | 51.85604 | 0.19133 | 996 ft | 136 kts | 47° |
| 2026-04-22 11:00 | 51.86299 | 0.20171 | 788 ft | 134 kts | 47° |
| 2026-04-22 11:01 | 51.86976 | 0.21186 | 588 ft | 134 kts | 49° |
| 2026-04-22 11:01 | 51.87659 | 0.22217 | 392 ft | 134 kts | 49° |
| 2026-04-22 11:01 | 51.88305 | 0.23191 | 335 ft | 110 kts | 42° |
| 2026-04-22 11:01 | 51.88742 | 0.23843 | 348 ft | 61 kts | 43° |
| 2026-04-22 11:02 | 51.88953 | 0.24161 | 353 ft | 34 kts | 44° |
| 2026-04-22 11:02 | 51.89070 | 0.24422 | 354 ft | 25 kts | 66° |
| 2026-04-22 11:02 | 51.89127 | 0.24649 | 356 ft | 19 kts | 67° |
| 2026-04-22 11:02 | 51.89170 | 0.24837 | 350 ft | 12 kts | 86° |
| 2026-04-22 11:03 | 51.89153 | 0.24887 | 359 ft | 2 kts | 129° |
| 2026-04-22 11:03 | 51.89139 | 0.24921 | 357 ft | 6 kts | 107° |
| 2026-04-22 11:03 | 51.89185 | 0.24991 | 359 ft | 13 kts | 44° |
| 2026-04-22 11:03 | 51.89241 | 0.25115 | 359 ft | 14 kts | 68° |
| 2026-04-22 11:04 | 51.89200 | 0.25240 | 357 ft | 11 kts | 133° |
| 2026-04-22 11:04 | 51.89147 | 0.25331 | 360 ft | 10 kts | 133° |
| 2026-04-22 11:04 | 51.89095 | 0.25422 | 357 ft | 12 kts | 134° |
| 2026-04-22 11:04 | 51.89036 | 0.25522 | 357 ft | 11 kts | 134° |
| 2026-04-22 11:05 | 51.89049 | 0.25601 | 360 ft | 9 kts | 36° |
| 2026-04-22 11:05 | 51.89066 | 0.25624 | 358 ft | 2 kts | 41° |
| 2026-04-22 11:05 | 51.89072 | 0.25632 | 357 ft | 1 kts | 41° |
| 2026-04-22 11:05 | 51.89077 | 0.25641 | 359 ft | 1 kts | 42° |
| 2026-04-22 11:06 | 51.89081 | 0.25646 | 358 ft | 0 kts | 42° |